< < Back
Terminal Aerodrome Forecast


Current Version              Previous Versions:   1  2  3  4  5  6  7  8  9  

Terminal Aerodrome Forecast

479
FTUS42 KFFC 300523
TAFMCN
TAF
KMCN 300523Z 3006/3106 26009KT P6SM VCSH BKN025 OVC080
     FM300800 30013G18KT P6SM OVC025
     FM301300 32012G17KT P6SM SCT035
     FM301600 32014G23KT P6SM SCT150
     FM310000 32004KT P6SM SKC=



Latest METAR

986
SAUS80 KWBC 310800 RRA
MTRMCN
METAR KMCN 310753Z AUTO 00000KT 10SM CLR M02/M05 A3034 RMK AO2 SLP274
T10171050 TSNO


USA.gov is the U.S. government's official web portal to all federal, state and local government web resources and services.